createdAt,value
2017-03-14T00:00:09.477Z,0
2017-03-14T00:00:50.121Z,0
2017-03-14T00:01:30.775Z,0
2017-03-14T00:02:11.427Z,0
2017-03-14T00:02:52.079Z,0
2017-03-14T00:03:32.732Z,0
2017-03-14T00:04:13.390Z,0
2017-03-14T00:04:54.038Z,0
2017-03-14T00:05:34.690Z,0
2017-03-14T00:06:15.348Z,0
2017-03-14T00:06:56.022Z,0
2017-03-14T00:07:36.646Z,0
2017-03-14T00:08:17.302Z,0
2017-03-14T00:08:57.963Z,0
2017-03-14T00:09:38.603Z,0
2017-03-14T00:10:19.262Z,0
2017-03-14T00:10:59.914Z,0
2017-03-14T00:11:40.523Z,0
2017-03-14T00:12:21.088Z,0
2017-03-14T00:13:01.666Z,0
2017-03-14T00:13:42.322Z,0
2017-03-14T00:14:22.898Z,0
2017-03-14T00:15:03.494Z,0
2017-03-14T00:15:44.086Z,0
2017-03-14T00:16:24.732Z,0
2017-03-14T00:17:05.381Z,0
2017-03-14T00:17:46.034Z,0
2017-03-14T00:18:26.701Z,0
2017-03-14T00:19:07.332Z,0
2017-03-14T00:19:47.991Z,0
2017-03-14T00:20:28.648Z,0
2017-03-14T00:21:09.303Z,0
2017-03-14T00:21:49.950Z,0
2017-03-14T00:22:30.611Z,0
2017-03-14T00:23:11.265Z,0
2017-03-14T00:23:51.906Z,0
2017-03-14T00:24:32.575Z,0
2017-03-14T00:25:13.227Z,0
2017-03-14T00:25:53.884Z,0
2017-03-14T00:26:34.457Z,0
2017-03-14T00:27:15.030Z,0
2017-03-14T00:27:55.624Z,0
2017-03-14T00:28:36.276Z,0
2017-03-14T00:29:16.850Z,0
2017-03-14T00:29:57.437Z,0
2017-03-14T00:30:38.031Z,0
2017-03-14T00:31:18.689Z,0
2017-03-14T00:31:59.270Z,0
2017-03-14T00:32:39.951Z,0
2017-03-14T00:33:20.544Z,0
2017-03-14T00:34:01.200Z,0
2017-03-14T00:34:41.764Z,0
2017-03-14T00:35:22.355Z,0
2017-03-14T00:36:02.954Z,0
2017-03-14T00:36:43.601Z,0
2017-03-14T00:37:24.260Z,0
2017-03-14T00:38:04.905Z,0
2017-03-14T00:38:45.564Z,0
2017-03-14T00:39:26.224Z,0
2017-03-14T00:40:06.874Z,0
2017-03-14T00:40:47.525Z,0
2017-03-14T00:41:28.096Z,0
2017-03-14T00:42:08.689Z,0
2017-03-14T00:42:49.272Z,0
2017-03-14T00:43:29.928Z,0
2017-03-14T00:44:10.507Z,0
2017-03-14T00:44:51.100Z,0
2017-03-14T00:45:31.681Z,0
2017-03-14T00:46:12.341Z,0
2017-03-14T00:46:52.900Z,0
2017-03-14T00:47:33.495Z,0
2017-03-14T00:48:14.089Z,0
2017-03-14T00:48:54.745Z,0
2017-03-14T00:49:35.317Z,0
2017-03-14T00:50:15.902Z,0
2017-03-14T00:50:56.526Z,0
2017-03-14T00:51:37.152Z,0
2017-03-14T00:52:17.726Z,0
2017-03-14T00:52:58.340Z,0
2017-03-14T00:53:39.009Z,0
2017-03-14T00:54:19.582Z,0
2017-03-14T00:55:00.251Z,0
2017-03-14T00:55:40.867Z,0
2017-03-14T00:56:21.433Z,0
2017-03-14T00:57:02.059Z,0
2017-03-14T00:57:42.725Z,0
2017-03-14T00:58:23.367Z,0
2017-03-14T00:59:04.024Z,0
2017-03-14T00:59:44.672Z,0
2017-03-14T01:00:25.329Z,0
2017-03-14T01:01:06.085Z,0
2017-03-14T01:01:46.736Z,0
2017-03-14T01:02:27.389Z,0
2017-03-14T01:03:08.039Z,0
2017-03-14T01:03:48.697Z,0
2017-03-14T01:04:29.363Z,0
2017-03-14T01:05:10.014Z,0
2017-03-14T01:05:50.652Z,0
2017-03-14T01:06:31.320Z,0
2017-03-14T01:07:11.985Z,0
2017-03-14T01:07:52.621Z,0
2017-03-14T01:08:33.267Z,0
2017-03-14T01:09:13.919Z,0
2017-03-14T01:09:54.575Z,0
2017-03-14T01:10:35.227Z,0
2017-03-14T01:11:15.879Z,0
2017-03-14T01:11:56.479Z,0
2017-03-14T01:12:37.095Z,0
2017-03-14T01:13:17.738Z,0
2017-03-14T01:13:58.304Z,0
2017-03-14T01:14:38.952Z,0
2017-03-14T01:15:19.591Z,0
2017-03-14T01:16:00.168Z,0
2017-03-14T01:16:40.820Z,0
2017-03-14T01:17:21.454Z,0
2017-03-14T01:18:02.104Z,0
2017-03-14T01:18:42.757Z,0
2017-03-14T01:19:23.409Z,0
2017-03-14T01:20:04.059Z,0
2017-03-14T01:20:44.718Z,0
2017-03-14T01:21:25.294Z,0
2017-03-14T01:22:05.866Z,0
2017-03-14T01:22:46.465Z,0
2017-03-14T01:23:27.122Z,0
2017-03-14T01:24:07.688Z,0
2017-03-14T01:24:48.299Z,0
2017-03-14T01:25:28.874Z,0
2017-03-14T01:26:09.500Z,0
2017-03-14T01:26:50.089Z,0
2017-03-14T01:27:30.748Z,0
2017-03-14T01:28:11.363Z,0
2017-03-14T01:28:53.957Z,0
2017-03-14T01:29:34.526Z,0
2017-03-14T01:30:15.110Z,0
2017-03-14T01:30:55.723Z,0
2017-03-14T01:31:38.313Z,0
2017-03-14T01:32:19.984Z,0
2017-03-14T01:33:01.665Z,0
2017-03-14T01:33:42.318Z,0
2017-03-14T01:34:22.962Z,0
2017-03-14T01:35:04.640Z,0
2017-03-14T01:35:46.327Z,0
2017-03-14T01:36:26.908Z,0
2017-03-14T01:37:08.554Z,0
2017-03-14T01:37:49.203Z,0
2017-03-14T01:38:29.775Z,0
2017-03-14T01:39:10.405Z,0
2017-03-14T01:39:51.060Z,0
2017-03-14T01:40:31.645Z,0
2017-03-14T01:41:12.266Z,0
2017-03-14T01:41:53.940Z,0
2017-03-14T01:42:34.536Z,0
2017-03-14T01:43:15.196Z,0
2017-03-14T01:43:55.793Z,0
2017-03-14T01:44:36.442Z,0
2017-03-14T01:45:17.017Z,0
2017-03-14T01:45:57.601Z,0
2017-03-14T01:46:38.211Z,0
2017-03-14T01:47:18.860Z,0
2017-03-14T01:48:01.555Z,0
2017-03-14T01:48:42.207Z,0
2017-03-14T01:49:23.792Z,0
2017-03-14T01:50:04.444Z,0
2017-03-14T01:50:45.093Z,0
2017-03-14T01:51:26.684Z,0
2017-03-14T01:52:11.820Z,0
2017-03-14T01:52:52.394Z,0
2017-03-14T01:53:32.996Z,0
2017-03-14T01:54:15.620Z,0
2017-03-14T01:54:56.273Z,0
2017-03-14T01:55:36.850Z,0
2017-03-14T01:56:17.424Z,0
2017-03-14T01:56:58.030Z,0
2017-03-14T01:57:40.649Z,0
2017-03-14T01:58:22.225Z,0
2017-03-14T01:59:02.795Z,0
2017-03-14T01:59:43.405Z,0
2017-03-14T02:00:24.072Z,0
2017-03-14T02:01:04.710Z,0
2017-03-14T02:01:45.363Z,0
2017-03-14T02:02:27.980Z,0
2017-03-14T02:03:08.621Z,0
2017-03-14T02:03:51.216Z,0
2017-03-14T02:04:36.580Z,0
2017-03-14T02:05:18.272Z,0
2017-03-14T02:05:58.912Z,0
2017-03-14T02:06:40.595Z,0
2017-03-14T02:07:21.241Z,0
2017-03-14T02:08:01.896Z,0
2017-03-14T02:08:42.553Z,0
2017-03-14T02:09:24.221Z,0
2017-03-14T02:10:04.884Z,0
2017-03-14T02:10:45.535Z,0
2017-03-14T02:11:26.136Z,0
2017-03-14T02:12:06.732Z,0
2017-03-14T02:12:47.391Z,0
2017-03-14T02:13:27.959Z,0
2017-03-14T02:14:08.600Z,0
2017-03-14T02:14:50.268Z,0
2017-03-14T02:15:30.814Z,0
2017-03-14T02:16:11.480Z,0
2017-03-14T02:16:54.065Z,0
2017-03-14T02:17:34.617Z,0
2017-03-14T02:18:16.275Z,0
2017-03-14T02:18:56.946Z,0
2017-03-14T02:19:37.600Z,0
2017-03-14T02:20:18.169Z,0
2017-03-14T02:20:59.792Z,0
2017-03-14T02:21:40.379Z,0
2017-03-14T02:22:32.809Z,0
2017-03-14T02:23:13.362Z,0
2017-03-14T02:23:54.000Z,0
2017-03-14T02:24:35.596Z,0
2017-03-14T02:25:16.164Z,0
2017-03-14T02:25:56.792Z,0
2017-03-14T02:26:37.445Z,0
2017-03-14T02:27:18.095Z,0
2017-03-14T02:28:00.793Z,0
2017-03-14T02:28:42.479Z,0
2017-03-14T02:29:23.132Z,0
2017-03-14T02:30:03.790Z,0
2017-03-14T02:30:44.432Z,0
2017-03-14T02:31:25.083Z,0
2017-03-14T02:32:05.748Z,0
2017-03-14T02:32:46.397Z,0
2017-03-14T02:33:27.044Z,0
2017-03-14T02:34:07.699Z,0
2017-03-14T02:34:48.346Z,0
2017-03-14T02:35:29.002Z,0
2017-03-14T02:36:10.194Z,0
2017-03-14T02:36:50.763Z,0
2017-03-14T02:37:31.455Z,0
2017-03-14T02:38:12.151Z,0
2017-03-14T02:38:52.781Z,0
2017-03-14T02:39:33.332Z,0
2017-03-14T02:40:14.981Z,0
2017-03-14T02:40:56.579Z,0
2017-03-14T02:41:37.232Z,0
2017-03-14T02:42:17.910Z,0
2017-03-14T02:42:58.535Z,0
2017-03-14T02:43:39.189Z,0
2017-03-14T02:44:20.778Z,0
2017-03-14T02:45:01.444Z,0
2017-03-14T02:45:43.101Z,0
2017-03-14T02:46:23.751Z,0
2017-03-14T02:47:04.331Z,0
2017-03-14T02:47:44.902Z,0
2017-03-14T02:48:25.607Z,0
2017-03-14T02:49:06.184Z,0
2017-03-14T02:49:51.625Z,0
2017-03-14T02:50:33.299Z,0
2017-03-14T02:51:13.880Z,0
2017-03-14T02:51:54.579Z,0
2017-03-14T02:52:36.263Z,0
2017-03-14T02:53:16.913Z,0
2017-03-14T02:53:57.568Z,0
2017-03-14T02:54:40.258Z,0
2017-03-14T02:55:21.946Z,0
2017-03-14T02:56:02.597Z,0
2017-03-14T02:56:44.280Z,0
2017-03-14T02:57:24.933Z,0
2017-03-14T02:58:12.345Z,0
2017-03-14T02:58:58.013Z,0
2017-03-14T02:59:38.667Z,0
2017-03-14T03:00:21.367Z,0
2017-03-14T03:01:04.057Z,0
2017-03-14T03:01:44.643Z,0
2017-03-14T03:02:36.267Z,0
2017-03-14T03:03:23.625Z,0
2017-03-14T03:04:08.893Z,0
2017-03-14T03:04:49.487Z,0
2017-03-14T03:05:32.122Z,0
2017-03-14T03:06:14.741Z,0
2017-03-14T03:06:55.412Z,0
2017-03-14T03:07:35.972Z,0
2017-03-14T03:08:16.593Z,0
2017-03-14T03:08:59.216Z,0
2017-03-14T03:09:39.779Z,0
2017-03-14T03:10:20.413Z,0
2017-03-14T03:11:02.087Z,0
2017-03-14T03:11:42.640Z,0
2017-03-14T03:12:24.348Z,0
2017-03-14T03:13:04.969Z,0
2017-03-14T03:13:45.628Z,0
2017-03-14T03:14:28.376Z,0
2017-03-14T03:15:08.997Z,0
2017-03-14T03:15:50.654Z,0
2017-03-14T03:16:32.326Z,0
2017-03-14T03:17:19.838Z,0
2017-03-14T03:18:00.416Z,0
2017-03-14T03:18:41.090Z,0
2017-03-14T03:19:22.723Z,0
2017-03-14T03:20:05.427Z,0
2017-03-14T03:20:46.011Z,0
2017-03-14T03:21:26.702Z,0
2017-03-14T03:22:12.097Z,0
2017-03-14T03:22:52.748Z,0
2017-03-14T03:23:33.337Z,0
2017-03-14T03:24:14.932Z,0
2017-03-14T03:25:00.131Z,0
2017-03-14T03:25:40.780Z,0
2017-03-14T03:26:21.353Z,0
2017-03-14T03:27:06.746Z,0
2017-03-14T03:27:47.354Z,0
2017-03-14T03:28:27.926Z,0
2017-03-14T03:29:13.179Z,0
2017-03-14T03:29:54.843Z,0
2017-03-14T03:30:35.412Z,0
2017-03-14T03:31:16.046Z,0
2017-03-14T03:31:56.714Z,0
2017-03-14T03:32:37.352Z,0
2017-03-14T03:33:19.023Z,0
2017-03-14T03:33:59.674Z,0
2017-03-14T03:34:41.359Z,0
2017-03-14T03:35:21.999Z,0
2017-03-14T03:36:03.688Z,0
2017-03-14T03:36:46.286Z,0
2017-03-14T03:37:26.940Z,0
2017-03-14T03:38:07.590Z,0
2017-03-14T03:38:48.242Z,0
2017-03-14T03:39:33.941Z,0
2017-03-14T03:40:21.431Z,0
2017-03-14T03:41:03.102Z,0
2017-03-14T03:41:43.662Z,0
2017-03-14T03:42:24.278Z,0
2017-03-14T03:43:04.959Z,0
2017-03-14T03:43:50.331Z,0
2017-03-14T03:44:30.877Z,0
2017-03-14T03:45:17.203Z,0
2017-03-14T03:45:58.845Z,0
2017-03-14T03:46:40.514Z,0
2017-03-14T03:47:25.877Z,0
2017-03-14T03:48:11.344Z,0
2017-03-14T03:48:51.999Z,0
2017-03-14T03:49:32.656Z,0
2017-03-14T03:50:13.302Z,0
2017-03-14T03:50:55.903Z,0
2017-03-14T03:51:36.557Z,0
2017-03-14T03:52:23.875Z,0
2017-03-14T03:53:04.510Z,0
2017-03-14T03:53:45.171Z,0
2017-03-14T03:54:38.418Z,0
2017-03-14T03:55:19.076Z,0
2017-03-14T03:56:05.363Z,0
2017-03-14T03:56:56.865Z,0
2017-03-14T03:57:37.517Z,0
2017-03-14T03:58:19.193Z,0
2017-03-14T03:58:59.848Z,0
2017-03-14T03:59:41.517Z,0
2017-03-14T04:00:26.888Z,0
2017-03-14T04:01:14.397Z,0
2017-03-14T04:01:54.969Z,0
2017-03-14T04:02:36.574Z,0
2017-03-14T04:03:29.721Z,0
2017-03-14T04:04:11.347Z,0
2017-03-14T04:04:51.917Z,0
2017-03-14T04:05:33.525Z,0
2017-03-14T04:06:14.127Z,0
2017-03-14T04:06:56.725Z,0
2017-03-14T04:07:38.401Z,0
2017-03-14T04:08:19.051Z,0
2017-03-14T04:09:04.417Z,0
2017-03-14T04:09:47.023Z,0
2017-03-14T04:10:33.404Z,0
2017-03-14T04:11:18.871Z,0
2017-03-14T04:12:00.550Z,0
2017-03-14T04:12:43.149Z,0
2017-03-14T04:13:25.752Z,0
2017-03-14T04:14:13.359Z,0
2017-03-14T04:15:05.901Z,0
2017-03-14T04:15:47.579Z,0
2017-03-14T04:16:32.825Z,0
2017-03-14T04:17:19.424Z,0
2017-03-14T04:18:05.914Z,0
2017-03-14T04:18:48.521Z,0
2017-03-14T04:19:31.120Z,0
2017-03-14T04:20:11.768Z,0
2017-03-14T04:20:57.431Z,0
2017-03-14T04:21:39.110Z,0
2017-03-14T04:22:19.679Z,0
2017-03-14T04:23:01.341Z,0
2017-03-14T04:23:43.928Z,76
2017-03-14T04:24:24.507Z,0
2017-03-14T04:25:06.170Z,0
2017-03-14T04:25:51.429Z,0
2017-03-14T04:26:32.001Z,0
2017-03-14T04:27:12.619Z,0
2017-03-14T04:27:53.285Z,0
2017-03-14T04:28:40.697Z,0
2017-03-14T04:29:32.090Z,0
2017-03-14T04:30:24.627Z,0
2017-03-14T04:31:11.119Z,0
2017-03-14T04:31:51.769Z,0
2017-03-14T04:32:33.450Z,0
2017-03-14T04:33:15.146Z,0
2017-03-14T04:33:55.771Z,0
2017-03-14T04:34:36.434Z,0
2017-03-14T04:35:21.598Z,0
2017-03-14T04:36:03.267Z,0
2017-03-14T04:36:43.913Z,0
2017-03-14T04:37:24.573Z,0
2017-03-14T04:38:05.220Z,0
2017-03-14T04:38:46.921Z,0
2017-03-14T04:39:27.573Z,0
2017-03-14T04:40:10.143Z,0
2017-03-14T04:40:55.623Z,0
2017-03-14T04:41:36.272Z,0
2017-03-14T04:42:16.937Z,0
2017-03-14T04:42:58.602Z,0
2017-03-14T04:43:39.248Z,0
2017-03-14T04:44:20.929Z,0
2017-03-14T04:45:03.526Z,0
2017-03-14T04:45:46.127Z,0
2017-03-14T04:46:31.584Z,0
2017-03-14T04:47:13.264Z,0
2017-03-14T04:47:55.864Z,0
2017-03-14T04:48:36.525Z,0
2017-03-14T04:49:17.194Z,0
2017-03-14T04:49:57.823Z,0
2017-03-14T04:50:38.498Z,0
2017-03-14T04:51:20.182Z,0
2017-03-14T04:52:01.757Z,0
2017-03-14T04:52:42.387Z,0
2017-03-14T04:53:22.954Z,0
2017-03-14T04:54:03.530Z,80
2017-03-14T04:54:44.133Z,0
2017-03-14T04:55:26.733Z,0
2017-03-14T04:56:07.298Z,0
2017-03-14T04:56:47.888Z,0
2017-03-14T04:57:28.488Z,0
2017-03-14T04:58:09.148Z,0
2017-03-14T04:58:49.802Z,0
2017-03-14T04:59:30.463Z,0
2017-03-14T05:00:11.103Z,0
2017-03-14T05:01:08.662Z,0
2017-03-14T05:01:50.329Z,0
2017-03-14T05:02:30.980Z,0
2017-03-14T05:03:11.546Z,0
2017-03-14T05:03:56.759Z,0
2017-03-14T05:04:39.386Z,0
2017-03-14T05:05:20.048Z,0
2017-03-14T05:06:00.612Z,0
2017-03-14T05:06:41.194Z,0
2017-03-14T05:07:27.684Z,0
2017-03-14T05:08:13.917Z,0
2017-03-14T05:08:55.600Z,0
2017-03-14T05:09:36.249Z,0
2017-03-14T05:10:17.934Z,0
2017-03-14T05:11:00.530Z,0
2017-03-14T05:11:41.174Z,0
2017-03-14T05:12:23.773Z,0
2017-03-14T05:13:04.431Z,0
2017-03-14T05:13:56.861Z,0
2017-03-14T05:14:37.511Z,0
2017-03-14T05:15:28.928Z,0
2017-03-14T05:16:10.594Z,0
2017-03-14T05:16:52.270Z,0
2017-03-14T05:17:32.844Z,4
2017-03-14T05:18:15.427Z,4
2017-03-14T05:18:56.074Z,4
2017-03-14T05:19:38.674Z,4
2017-03-14T05:20:31.931Z,4
2017-03-14T05:21:14.524Z,4
2017-03-14T05:21:55.083Z,4
2017-03-14T05:22:40.633Z,4
2017-03-14T05:23:22.323Z,4
2017-03-14T05:24:02.895Z,4
2017-03-14T05:24:45.230Z,8
2017-03-14T05:25:25.813Z,8
2017-03-14T05:26:06.378Z,8
2017-03-14T05:26:47.018Z,8
2017-03-14T05:27:32.373Z,12
2017-03-14T05:28:12.949Z,8
2017-03-14T05:28:53.548Z,12
2017-03-14T05:29:35.150Z,12
2017-03-14T05:30:15.806Z,12
2017-03-14T05:30:56.374Z,16
2017-03-14T05:31:41.782Z,16
2017-03-14T05:32:24.430Z,16
2017-03-14T05:33:05.073Z,20
2017-03-14T05:33:45.735Z,16
2017-03-14T05:34:26.393Z,20
2017-03-14T05:35:07.043Z,24
2017-03-14T05:35:47.694Z,24
2017-03-14T05:36:33.159Z,24
2017-03-14T05:37:15.758Z,28
2017-03-14T05:38:07.167Z,28
2017-03-14T05:38:49.808Z,32
2017-03-14T05:39:31.433Z,32
2017-03-14T05:40:12.083Z,36
2017-03-14T05:40:52.731Z,36
2017-03-14T05:41:33.397Z,40
2017-03-14T05:42:13.975Z,40
2017-03-14T05:43:01.316Z,44
2017-03-14T05:43:42.946Z,48
2017-03-14T05:44:23.583Z,48
2017-03-14T05:45:04.137Z,52
2017-03-14T05:45:44.741Z,52
2017-03-14T05:46:25.442Z,60
2017-03-14T05:47:07.134Z,60
2017-03-14T05:47:52.378Z,64
2017-03-14T05:48:47.881Z,68
2017-03-14T05:49:28.535Z,68
2017-03-14T05:50:09.187Z,72
2017-03-14T05:50:49.851Z,72
2017-03-14T05:51:31.507Z,80
2017-03-14T05:52:12.076Z,84
2017-03-14T05:52:53.707Z,88
2017-03-14T05:53:34.293Z,96
2017-03-14T05:54:16.894Z,100
2017-03-14T05:54:57.467Z,108
2017-03-14T05:55:39.072Z,188
2017-03-14T05:56:19.783Z,128
2017-03-14T05:57:02.363Z,136
2017-03-14T05:57:42.963Z,148
2017-03-14T05:58:24.562Z,160
2017-03-14T05:59:07.194Z,176
2017-03-14T05:59:47.848Z,192
2017-03-14T06:00:28.454Z,212
2017-03-14T06:01:15.791Z,232
2017-03-14T06:02:01.163Z,256
2017-03-14T06:04:44.398Z,336
2017-03-14T06:05:24.964Z,356
2017-03-14T06:06:05.569Z,372
2017-03-14T06:06:47.176Z,392
2017-03-14T06:07:28.853Z,408
2017-03-14T06:08:09.509Z,420
2017-03-14T06:08:52.108Z,432
2017-03-14T06:09:34.719Z,444
2017-03-14T06:10:15.358Z,456
2017-03-14T06:11:01.867Z,464
2017-03-14T06:11:43.535Z,480
2017-03-14T06:12:24.177Z,484
2017-03-14T06:13:04.830Z,488
2017-03-14T06:13:47.429Z,488
2017-03-14T06:14:28.082Z,484
2017-03-14T06:15:08.733Z,484
2017-03-14T06:15:54.304Z,476
2017-03-14T06:16:40.793Z,468
2017-03-14T06:17:21.443Z,468
2017-03-14T06:18:03.124Z,464
2017-03-14T06:18:43.773Z,464
2017-03-14T06:19:25.451Z,464
2017-03-14T06:20:07.132Z,464
2017-03-14T06:20:52.286Z,472
2017-03-14T06:21:33.962Z,484
2017-03-14T06:22:15.537Z,492
2017-03-14T06:22:58.135Z,508
2017-03-14T06:23:38.793Z,528
2017-03-14T06:24:19.440Z,552
2017-03-14T06:25:00.100Z,580
2017-03-14T06:25:40.744Z,600
2017-03-14T06:26:22.431Z,628
2017-03-14T06:27:03.082Z,656
2017-03-14T06:27:43.732Z,684
2017-03-14T06:28:29.302Z,708
2017-03-14T06:29:09.952Z,740
2017-03-14T06:29:50.605Z,772
2017-03-14T06:30:33.203Z,812
2017-03-14T06:31:13.764Z,856
2017-03-14T06:31:56.418Z,904
2017-03-14T06:32:37.011Z,948
2017-03-14T06:33:17.661Z,1000
2017-03-14T06:33:58.228Z,1044
2017-03-14T06:34:38.840Z,1092
2017-03-14T06:35:19.506Z,1140
2017-03-14T06:36:00.171Z,1172
2017-03-14T06:36:40.731Z,1220
2017-03-14T06:37:22.350Z,1244
2017-03-14T06:38:02.949Z,1272
2017-03-14T06:38:43.601Z,1304
2017-03-14T06:39:24.180Z,1344
2017-03-14T06:40:09.674Z,1392
2017-03-14T06:40:50.277Z,1440
2017-03-14T06:41:30.919Z,1500
2017-03-14T06:42:11.509Z,1568
2017-03-14T06:42:54.144Z,1644
2017-03-14T06:43:34.725Z,1716
2017-03-14T06:44:15.377Z,1784
2017-03-14T06:44:55.955Z,1864
2017-03-14T06:45:36.633Z,1932
2017-03-14T06:46:19.282Z,2004
2017-03-14T06:46:59.935Z,2056
2017-03-14T06:47:40.511Z,2100
2017-03-14T06:48:27.087Z,2148
2017-03-14T06:49:07.729Z,2196
2017-03-14T06:49:48.285Z,2240
2017-03-14T06:50:29.960Z,2312
2017-03-14T06:51:10.614Z,2392
2017-03-14T06:51:51.148Z,2468
2017-03-14T06:52:31.814Z,2532
2017-03-14T06:53:14.413Z,2576
2017-03-14T06:53:55.066Z,2600
2017-03-14T06:54:36.745Z,2620
2017-03-14T06:55:22.107Z,2656
2017-03-14T06:56:02.756Z,2672
2017-03-14T06:56:43.411Z,2668
2017-03-14T06:57:24.059Z,2660
2017-03-14T06:58:04.717Z,2648
2017-03-14T06:58:46.391Z,2648
2017-03-14T06:59:27.046Z,2660
2017-03-14T07:00:07.716Z,2680
2017-03-14T07:00:48.385Z,2712
2017-03-14T07:01:28.998Z,2736
2017-03-14T07:02:09.634Z,2776
2017-03-14T07:02:50.211Z,2844
2017-03-14T07:03:31.888Z,2912
2017-03-14T07:04:12.542Z,2984
2017-03-14T07:04:53.191Z,3048
2017-03-14T07:05:33.844Z,3116
2017-03-14T07:06:14.501Z,3164
2017-03-14T07:07:01.920Z,3228
2017-03-14T07:07:42.560Z,3300
2017-03-14T07:08:24.149Z,3376
2017-03-14T07:09:04.827Z,3452
2017-03-14T07:09:45.435Z,3504
2017-03-14T07:10:32.859Z,3508
2017-03-14T07:11:13.517Z,3472
2017-03-14T07:11:55.182Z,3408
2017-03-14T07:12:35.845Z,3392
2017-03-14T07:13:18.451Z,3332
2017-03-14T07:13:59.090Z,3288
2017-03-14T07:14:40.767Z,3260
2017-03-14T07:15:27.366Z,3232
2017-03-14T07:16:08.009Z,3212
2017-03-14T07:16:48.676Z,3200
2017-03-14T07:17:29.321Z,3200
2017-03-14T07:18:15.807Z,3220
2017-03-14T07:18:57.377Z,3248
2017-03-14T07:19:38.030Z,3280
2017-03-14T07:20:18.697Z,3296
2017-03-14T07:21:00.367Z,3308
2017-03-14T07:21:42.078Z,3316
2017-03-14T07:22:29.356Z,3304
2017-03-14T07:23:11.960Z,3284
2017-03-14T07:23:59.371Z,3252
2017-03-14T07:24:40.924Z,3248
2017-03-14T07:25:27.317Z,3236
2017-03-14T07:26:09.923Z,3236
2017-03-14T07:26:51.606Z,3256
2017-03-14T07:27:32.172Z,3280
2017-03-14T07:28:19.827Z,3308
2017-03-14T07:29:01.461Z,3324
2017-03-14T07:29:42.012Z,3340
2017-03-14T07:30:22.592Z,3364
2017-03-14T07:31:04.181Z,3400
2017-03-14T07:31:44.795Z,3448
2017-03-14T07:32:27.477Z,3504
2017-03-14T07:33:08.136Z,3580
2017-03-14T07:33:48.785Z,3692
2017-03-14T07:34:29.433Z,3844
2017-03-14T07:35:10.120Z,4152
2017-03-14T07:36:01.286Z,4560
2017-03-14T07:36:41.938Z,4940
2017-03-14T07:37:22.593Z,5204
2017-03-14T07:38:04.277Z,5340
2017-03-14T07:38:45.948Z,5332
2017-03-14T07:39:28.550Z,5276
2017-03-14T07:40:09.198Z,5200
2017-03-14T07:40:55.271Z,5084
2017-03-14T07:41:36.852Z,4860
2017-03-14T07:42:19.466Z,4772
2017-03-14T07:43:00.038Z,4736
2017-03-14T07:43:42.670Z,4672
2017-03-14T07:44:23.269Z,4572
2017-03-14T07:45:04.934Z,4496
2017-03-14T07:45:45.496Z,4424
2017-03-14T07:46:28.143Z,4304
2017-03-14T07:47:10.776Z,4164
2017-03-14T07:47:52.454Z,4064
2017-03-14T07:48:33.041Z,3988
2017-03-14T07:49:19.147Z,3912
2017-03-14T07:49:59.791Z,3864
2017-03-14T07:50:40.452Z,3808
2017-03-14T07:51:25.704Z,3728
2017-03-14T07:52:08.315Z,3628
2017-03-14T07:52:54.836Z,3544
2017-03-14T07:53:46.391Z,3488
2017-03-14T07:54:27.009Z,3488
2017-03-14T07:55:18.311Z,3468
2017-03-14T07:55:59.990Z,3436
2017-03-14T07:56:40.640Z,3404
2017-03-14T07:57:25.804Z,3352
2017-03-14T07:58:06.400Z,3312
2017-03-14T07:58:47.061Z,3268
2017-03-14T07:59:27.657Z,3268
2017-03-14T08:00:09.231Z,3236
2017-03-14T08:00:49.813Z,3188
2017-03-14T08:01:30.489Z,3140
2017-03-14T08:02:11.078Z,3116
2017-03-14T08:02:57.367Z,3064
2017-03-14T08:03:37.942Z,3064
2017-03-14T08:04:19.553Z,3036
2017-03-14T08:05:00.143Z,3028
2017-03-14T08:05:45.303Z,3036
2017-03-14T08:06:25.863Z,3056
2017-03-14T08:07:06.456Z,3108
2017-03-14T08:07:47.060Z,3128
2017-03-14T08:08:27.716Z,3128
2017-03-14T08:09:08.384Z,3140
2017-03-14T08:09:49.042Z,3152
2017-03-14T08:10:29.710Z,3180
2017-03-14T08:11:10.383Z,3224
2017-03-14T08:11:51.002Z,3260
2017-03-14T08:12:31.662Z,3300
2017-03-14T08:13:12.321Z,3328
2017-03-14T08:13:52.883Z,3340
2017-03-14T08:14:33.448Z,3368
2017-03-14T08:15:14.076Z,3396
2017-03-14T08:15:54.720Z,3456
2017-03-14T08:16:35.289Z,3544
2017-03-14T08:17:15.873Z,3600
2017-03-14T08:17:56.494Z,3708
2017-03-14T08:18:37.117Z,3784
2017-03-14T08:19:17.793Z,3832
2017-03-14T08:19:58.443Z,3884
2017-03-14T08:20:39.067Z,3924
2017-03-14T08:23:07.823Z,4148
2017-03-14T08:23:48.485Z,4104
2017-03-14T08:24:29.066Z,4156
2017-03-14T08:25:09.719Z,4192
2017-03-14T08:25:50.251Z,4288
2017-03-14T08:26:31.942Z,4380
2017-03-14T08:27:12.670Z,4324
2017-03-14T08:27:53.386Z,4448
2017-03-14T08:28:35.062Z,4484
2017-03-14T08:29:15.716Z,4556
2017-03-14T08:29:57.395Z,4716
2017-03-14T08:30:38.123Z,4812
2017-03-14T08:31:18.798Z,4940
2017-03-14T08:31:59.422Z,5068
2017-03-14T08:32:39.972Z,5152
2017-03-14T08:33:20.565Z,5176
2017-03-14T08:34:01.220Z,5192
2017-03-14T08:34:41.873Z,5244
2017-03-14T08:35:22.534Z,5260
2017-03-14T08:36:03.180Z,5256
2017-03-14T08:36:43.846Z,5268
2017-03-14T08:37:24.501Z,5248
2017-03-14T08:38:05.152Z,5172
2017-03-14T08:38:45.799Z,5064
2017-03-14T08:39:26.444Z,4904
2017-03-14T08:40:07.104Z,4788
2017-03-14T08:40:47.762Z,4688
2017-03-14T08:41:28.402Z,4596
2017-03-14T08:42:09.054Z,4524
2017-03-14T08:42:49.653Z,4480
2017-03-14T08:43:30.323Z,4488
2017-03-14T08:44:10.927Z,4516
2017-03-14T08:44:51.561Z,4512
2017-03-14T08:45:32.128Z,4520
2017-03-14T08:46:12.721Z,4532
2017-03-14T08:46:53.309Z,4564
2017-03-14T08:47:33.880Z,4612
2017-03-14T08:48:14.529Z,4656
2017-03-14T08:48:55.106Z,4660
2017-03-14T08:49:35.799Z,4648
2017-03-14T08:50:16.411Z,4636
2017-03-14T08:50:57.035Z,4604
2017-03-14T08:51:37.617Z,4564
2017-03-14T08:52:18.204Z,4540
2017-03-14T08:52:59.818Z,4556
2017-03-14T08:53:40.476Z,4544
2017-03-14T08:54:21.031Z,4508
2017-03-14T08:55:01.591Z,4412
2017-03-14T08:55:42.221Z,4340
2017-03-14T08:56:22.870Z,4300
2017-03-14T08:57:03.425Z,4300
2017-03-14T08:57:44.031Z,4336
2017-03-14T08:58:24.696Z,4396
2017-03-14T08:59:05.341Z,4460
2017-03-14T08:59:45.983Z,4520
2017-03-14T09:00:26.675Z,4556
2017-03-14T09:01:07.285Z,4660
2017-03-14T09:01:47.954Z,4784
2017-03-14T09:02:28.605Z,4796
2017-03-14T09:03:09.252Z,4828
2017-03-14T09:03:49.921Z,4844
2017-03-14T09:04:30.538Z,4852
2017-03-14T09:05:11.157Z,4860
2017-03-14T09:05:51.818Z,4984
2017-03-14T09:06:32.468Z,5124
2017-03-14T09:07:13.124Z,5200
2017-03-14T09:07:53.775Z,5216
2017-03-14T09:08:34.410Z,5204
2017-03-14T09:09:15.069Z,5248
2017-03-14T09:09:57.696Z,5296
2017-03-14T09:10:38.339Z,5324
2017-03-14T09:11:20.930Z,5268
2017-03-14T09:12:02.618Z,5280
2017-03-14T09:12:43.261Z,5232
2017-03-14T09:13:23.879Z,5200
2017-03-14T09:14:04.585Z,5116
2017-03-14T09:14:45.228Z,5060
2017-03-14T09:15:25.850Z,5004
2017-03-14T09:16:06.523Z,5000
2017-03-14T09:16:47.229Z,5112
2017-03-14T09:17:27.836Z,5124
2017-03-14T09:18:08.477Z,5228
2017-03-14T09:18:49.171Z,5256
2017-03-14T09:19:29.903Z,5228
2017-03-14T09:20:10.575Z,5216
2017-03-14T09:20:51.305Z,5256
2017-03-14T09:21:31.960Z,5320
2017-03-14T09:22:12.513Z,5408
2017-03-14T09:22:53.133Z,5512
2017-03-14T09:23:34.729Z,5628
2017-03-14T09:24:15.275Z,5740
2017-03-14T09:24:55.885Z,5820
2017-03-14T09:25:36.486Z,5844
2017-03-14T09:26:18.157Z,5956
2017-03-14T09:26:58.707Z,6124
2017-03-14T09:27:39.313Z,6232
2017-03-14T09:28:19.926Z,6308
2017-03-14T09:29:00.694Z,6396
2017-03-14T09:29:41.446Z,6524
2017-03-14T09:30:22.196Z,6588
2017-03-14T09:31:02.954Z,6680
2017-03-14T09:31:43.701Z,6724
2017-03-14T09:32:25.495Z,6828
2017-03-14T09:33:06.087Z,6904
2017-03-14T09:33:46.883Z,6832
2017-03-14T09:34:27.665Z,6636
2017-03-14T09:35:08.311Z,6312
2017-03-14T09:35:48.927Z,6004
2017-03-14T09:36:29.714Z,5744
2017-03-14T09:37:11.549Z,5560
2017-03-14T09:37:57.920Z,5408
2017-03-14T09:38:38.546Z,5408
2017-03-14T09:39:19.304Z,5532
2017-03-14T09:40:00.038Z,5668
2017-03-14T09:40:40.774Z,6676
2017-03-14T09:41:21.429Z,5704
2017-03-14T09:42:02.199Z,5836
2017-03-14T09:42:42.751Z,5208
2017-03-14T09:43:23.333Z,5616
2017-03-14T09:44:04.038Z,5588
2017-03-14T09:44:44.726Z,5032
2017-03-14T09:45:25.246Z,5196
2017-03-14T09:46:05.848Z,5384
2017-03-14T09:47:01.155Z,5856
2017-03-14T09:47:52.349Z,5812
2017-03-14T09:55:19.510Z,5660
2017-03-14T09:56:00.078Z,5616
2017-03-14T09:56:40.725Z,5572
2017-03-14T09:57:21.266Z,5620
2017-03-14T09:58:01.917Z,5684
2017-03-14T09:58:42.560Z,5648
2017-03-14T09:59:23.216Z,5544
2017-03-14T10:00:03.993Z,5448